Spring Valley, Texas
Current Conditions -  °F | °C
As of 11:55 PM on Saturday 22 Nov 2014 (Local Time) from KMCJ Reporting Station
Broken Clouds Broken Clouds  
Wind Chill: 18°   Ceiling: 2800
Heat Index: 18°   Visibility: 5mi
Dew Point: 17°   Wind: 12mph
Humidity: 94%   Direction: 100°E
Pressure: 29.71"   Gusts: NA
Location:  29.7698°N, 95.5164°W
Report Text: KMCJ 230555Z AUTO 10010KT 5SM FEW001 SCT014 BKN028 18/17 A2971 RMK AO1 P0008
Loading
Personal Weather Stations






























Interactive Weather Map New forecast layout! Learn more

10-Day Weather Forecast

Advertisements
Track Severe Weather on mobile